Time;durP1;ratioP1;P1;durP2;ratioP2;P2;SDS_P1;SDS_P2;PMS_P1;PMS_P2;Temp;Humidity;BMP_temperature;BMP_pressure;BME280_temperature;BME280_humidity;BME280_pressure;Samples;Min_cycle;Max_cycle;Signal;HPM_P1;HPM_P2
2021/11/08 00:02:29;;;;;;;;;;;;;;;;;;6076302;23;19925;-90
2021/11/08 00:04:57;;;;;;;;;;;;;;;;;;6076238;23;19931;-91
2021/11/08 00:07:27;;;;;;;;;;;;;;;;;;6100585;23;20254;-90
2021/11/08 00:09:55;;;;;;;;;;;;;;;;;;6125611;23;19932;-89
2021/11/08 00:12:24;;;;;;;;;;;;;;;;;;6075721;23;19928;-89
2021/11/08 00:14:56;;;;;;;;;;;;;;;;;;6100398;23;19928;-90
2021/11/08 00:20:10;;;;;;;;;;;;;;;;;;6095548;23;19945;-92
2021/11/08 00:22:40;;;;;;;;;;;;;;;;;;6107597;23;20325;-87
2021/11/08 00:25:08;;;;;;;;;;;;;;;;;;6100296;23;20274;-88
2021/11/08 00:27:37;;;;;;;;;;;;;;;;;;6099827;23;19929;-89
2021/11/08 00:30:06;;;;;;;;;;;;;;;;;;6075477;23;19928;-89
2021/11/08 00:32:35;;;;;;;;;;;;;;;;;;6125758;23;19921;-88
2021/11/08 00:35:05;;;;;;;;;;;;;;;;;;6099049;23;19921;-89
2021/11/08 00:37:34;;;;;;;;;;;;;;;;;;6099956;23;19921;-90
2021/11/08 00:40:06;;;;;;;;;;;;;;;;;;6099649;23;19928;-91
2021/11/08 00:42:34;;;;;;;;;;;;;;;;;;6074498;23;19925;-88
2021/11/08 00:45:03;;;;;;;;;;;;;;;;;;6075987;23;19921;-90
2021/11/08 00:47:33;;;;;;;;;;;;;;;;;;6099451;23;19921;-88
2021/11/08 00:50:04;;;;;;;;;;;;;;;;;;6103196;23;19940;-92
2021/11/08 00:52:32;;;;;;;;;;;;;;;;;;6095187;23;19932;-90
2021/11/08 00:55:02;;;;;;;;;;;;;;;;;;6096009;23;19921;-88
2021/11/08 00:57:33;;;;;;;;;;;;;;;;;;6070211;23;19969;-87
2021/11/08 01:00:04;;;;;;;;;;;;;;;;;;6070822;23;19921;-89
2021/11/08 01:02:37;;;;;;;;;;;;;;;;;;6071937;23;19921;-90
2021/11/08 01:05:09;;;;;;;;;;;;;;;;;;6071349;23;19929;-90
2021/11/08 01:07:38;;;;;;;;;;;;;;;;;;6105753;23;20362;-90
2021/11/08 01:10:10;;;;;;;;;;;;;;;;;;6095055;23;19925;-88
2021/11/08 01:12:42;;;;;;;;;;;;;;;;;;6071865;23;19928;-91
2021/11/08 01:15:12;;;;;;;;;;;;;;;;;;6093936;23;19922;-88
2021/11/08 01:17:40;;;;;;;;;;;;;;;;;;6096782;23;20357;-89
2021/11/08 01:20:09;;;;;;;;;;;;;;;;;;6095012;23;19921;-91
2021/11/08 01:22:38;;;;;;;;;;;;;;;;;;6095546;23;19925;-89
2021/11/08 01:25:09;;;;;;;;;;;;;;;;;;6094708;23;19932;-88
2021/11/08 01:27:40;;;;;;;;;;;;;;;;;;6071534;23;19928;-89
2021/11/08 01:30:11;;;;;;;;;;;;;;;;;;6069505;23;19925;-90
2021/11/08 01:32:40;;;;;;;;;;;;;;;;;;6070952;23;19921;-87
2021/11/08 01:35:09;;;;;;;;;;;;;;;;;;6093424;23;20361;-86
2021/11/08 01:37:37;;;;;;;;;;;;;;;;;;6073427;23;19928;-86
2021/11/08 01:40:08;;;;;;;;;;;;;;;;;;6113552;23;19931;-87
2021/11/08 01:42:37;;;;;;;;;;;;;;;;;;6090604;23;20357;-88
2021/11/08 01:45:06;;;;;;;;;;;;;;;;;;6105597;23;19925;-90
2021/11/08 01:47:35;;;;;;;;;;;;;;;;;;6094562;23;19928;-88
2021/11/08 01:50:04;;;;;;;;;;;;;;;;;;6066737;23;19926;-89
2021/11/08 01:52:32;;;;;;;;;;;;;;;;;;6067846;23;19921;-90
2021/11/08 01:55:01;;;;;;;;;;;;;;;;;;6092460;23;19921;-90
2021/11/08 01:57:29;;;;;;;;;;;;;;;;;;6067650;23;19921;-90
2021/11/08 02:00:00;;;;;;;;;;;;;;;;;;6090187;23;20430;-93
2021/11/08 02:02:33;;;;;;;;;;;;;;;;;;6067056;23;20281;-90
2021/11/08 02:05:02;;;;;;;;;;;;;;;;;;6068180;23;19925;-90
2021/11/08 02:07:31;;;;;;;;;;;;;;;;;;6068195;23;19921;-91
2021/11/08 02:09:59;;;;;;;;;;;;;;;;;;6068265;23;20361;-90
2021/11/08 02:12:27;;;;;;;;;;;;;;;;;;6066753;23;19921;-90
2021/11/08 02:14:58;;;;;;;;;;;;;;;;;;6090163;23;19922;-87
2021/11/08 02:17:31;;;;;;;;;;;;;;;;;;6068501;23;19921;-89
2021/11/08 02:20:14;;;;;;;;;;;;;;;;;;6067386;23;19929;-90
2021/11/08 02:22:43;;;;;;;;;;;;;;;;;;6069613;23;19925;-89
2021/11/08 02:25:12;;;;;;;;;;;;;;;;;;6093312;23;19928;-88
2021/11/08 02:27:46;;;;;;;;;;;;;;;;;;6069448;23;19922;-90
2021/11/08 02:30:19;;;;;;;;;;;;;;;;;;6068821;23;19921;-91
2021/11/08 02:32:51;;;;;;;;;;;;;;;;;;6103488;23;19928;-89
2021/11/08 02:35:38;;;;;;;;;;;;;;;;;;6069893;23;19925;-89
2021/11/08 02:38:30;;;;;;;;;;;;;;;;;;6069186;23;19921;-89
2021/11/08 02:41:05;;;;;;;;;;;;;;;;;;6068773;23;19922;-88
2021/11/08 02:43:33;;;;;;;;;;;;;;;;;;6068947;23;19921;-88
2021/11/08 02:46:06;;;;;;;;;;;;;;;;;;6092919;23;19928;-91
2021/11/08 02:48:34;;;;;;;;;;;;;;;;;;6093345;23;19928;-87
2021/11/08 02:51:10;;;;;;;;;;;;;;;;;;6097147;23;20232;-89
2021/11/08 02:53:42;;;;;;;;;;;;;;;;;;6098107;23;20225;-89
2021/11/08 02:56:11;;;;;;;;;;;;;;;;;;6098718;23;19921;-92
2021/11/08 02:58:42;;;;;;;;;;;;;;;;;;6099227;23;20369;-88
2021/11/08 03:01:11;;;;;;;;;;;;;;;;;;6134757;23;19921;-89
2021/11/08 03:03:41;;;;;;;;;;;;;;;;;;6098673;23;19924;-90
2021/11/08 03:06:15;;;;;;;;;;;;;;;;;;6099790;23;19925;-88
2021/11/08 03:08:46;;;;;;;;;;;;;;;;;;6134470;23;19920;-89
2021/11/08 03:11:14;;;;;;;;;;;;;;;;;;6075907;23;19964;-90
2021/11/08 03:13:51;;;;;;;;;;;;;;;;;;6100414;23;19921;-90
2021/11/08 03:16:26;;;;;;;;;;;;;;;;;;6110495;23;19925;-90
2021/11/08 03:18:58;;;;;;;;;;;;;;;;;;6100822;23;19921;-91
2021/11/08 03:21:27;;;;;;;;;;;;;;;;;;6076513;23;19920;-91
2021/11/08 03:24:00;;;;;;;;;;;;;;;;;;6126913;23;20242;-89
2021/11/08 03:26:39;;;;;;;;;;;;;;;;;;6136166;23;19932;-88
2021/11/08 03:29:11;;;;;;;;;;;;;;;;;;6076234;23;19921;-90
2021/11/08 03:31:40;;;;;;;;;;;;;;;;;;6110017;23;19925;-89
2021/11/08 03:34:09;;;;;;;;;;;;;;;;;;6099573;23;19924;-90
2021/11/08 03:36:40;;;;;;;;;;;;;;;;;;6111040;23;20381;-90
2021/11/08 03:39:10;;;;;;;;;;;;;;;;;;6101239;23;19921;-90
2021/11/08 03:41:41;;;;;;;;;;;;;;;;;;6128706;23;19928;-87
2021/11/08 03:44:09;;;;;;;;;;;;;;;;;;6138582;23;19940;-91
2021/11/08 03:46:37;;;;;;;;;;;;;;;;;;6102077;23;19928;-88
2021/11/08 03:49:06;;;;;;;;;;;;;;;;;;6102563;23;19948;-89
2021/11/08 03:51:34;;;;;;;;;;;;;;;;;;6073076;23;20311;-88
2021/11/08 03:54:04;;;;;;;;;;;;;;;;;;6097692;23;19928;-89
2021/11/08 03:56:34;;;;;;;;;;;;;;;;;;6098313;23;20090;-90
2021/11/08 03:59:03;;;;;;;;;;;;;;;;;;6097314;23;19921;-89
2021/11/08 04:01:36;;;;;;;;;;;;;;;;;;6097149;23;20343;-88
2021/11/08 04:04:07;;;;;;;;;;;;;;;;;;6073372;23;20342;-89
2021/11/08 04:06:37;;;;;;;;;;;;;;;;;;6096841;23;20358;-91
2021/11/08 04:09:07;;;;;;;;;;;;;;;;;;6072947;23;20211;-89
2021/11/08 04:11:37;;;;;;;;;;;;;;;;;;6073139;23;19925;-90
2021/11/08 04:14:06;;;;;;;;;;;;;;;;;;6073280;23;19929;-90
2021/11/08 04:16:34;;;;;;;;;;;;;;;;;;6098155;23;19925;-90
2021/11/08 04:19:03;;;;;;;;;;;;;;;;;;6097638;23;19921;-91
2021/11/08 04:21:35;;;;;;;;;;;;;;;;;;6072573;23;19925;-89
2021/11/08 04:24:04;;;;;;;;;;;;;;;;;;6106687;23;19928;-91
2021/11/08 04:26:36;;;;;;;;;;;;;;;;;;6096179;23;19921;-90
2021/11/08 04:29:06;;;;;;;;;;;;;;;;;;6096497;23;19932;-89
2021/11/08 04:31:35;;;;;;;;;;;;;;;;;;6073104;23;19922;-91
2021/11/08 04:34:06;;;;;;;;;;;;;;;;;;6096400;23;19921;-90
2021/11/08 04:36:52;;;;;;;;;;;;;;;;;;6071904;23;19928;-90
2021/11/08 04:39:29;;;;;;;;;;;;;;;;;;6073252;23;19927;-90
2021/11/08 04:42:01;;;;;;;;;;;;;;;;;;6073522;23;19921;-89
2021/11/08 04:44:56;;;;;;;;;;;;;;;;;;6096514;23;19922;-90
2021/11/08 04:48:00;;;;;;;;;;;;;;;;;;6108340;23;19928;-92
2021/11/08 04:50:35;;;;;;;;;;;;;;;;;;6071614;23;19928;-89
2021/11/08 04:53:13;;;;;;;;;;;;;;;;;;6100059;23;19921;-91
2021/11/08 04:56:12;;;;;;;;;;;;;;;;;;6076663;23;19925;-91
2021/11/08 05:20:59;;;;;;;;;;;;;;;;;;6076652;23;19925;-90
2021/11/08 05:21:50;;;;;;;;;;;;;;;;;;6074002;23;19936;-91
2021/11/08 05:30:01;;;;;;;;;;;;;;;;;;6079771;23;19921;-91
2021/11/08 05:32:31;;;;;;;;;;;;;;;;;;6077638;23;19921;-92
2021/11/08 05:35:05;;;;;;;;;;;;;;;;;;6075424;23;19921;-92
2021/11/08 05:37:35;;;;;;;;;;;;;;;;;;6098997;23;19921;-91
2021/11/08 05:40:11;;;;;;;;;;;;;;;;;;6075499;23;20254;-92
2021/11/08 05:42:40;;;;;;;;;;;;;;;;;;6113709;23;19921;-92
2021/11/08 05:45:10;;;;;;;;;;;;;;;;;;6128408;23;19921;-91
2021/11/08 05:47:39;;;;;;;;;;;;;;;;;;6103225;23;19928;-91
2021/11/08 05:50:11;;;;;;;;;;;;;;;;;;6079642;23;19931;-91
2021/11/08 05:52:50;;;;;;;;;;;;;;;;;;6079145;23;20362;-92
2021/11/08 05:55:34;;;;;;;;;;;;;;;;;;6080207;23;19927;-91
2021/11/08 05:58:15;;;;;;;;;;;;;;;;;;6080441;23;19931;-90
2021/11/08 06:51:04;;;;;;;;;;;;;;;;;;6106732;23;19925;-91
2021/11/08 06:53:33;;;;;;;;;;;;;;;;;;6081710;23;19921;-90
2021/11/08 06:56:16;;;;;;;;;;;;;;;;;;6081319;23;19927;-89
2021/11/08 06:58:45;;;;;;;;;;;;;;;;;;6105191;23;19927;-89
2021/11/08 07:01:15;;;;;;;;;;;;;;;;;;6105019;23;19921;-90
2021/11/08 07:03:44;;;;;;;;;;;;;;;;;;6079605;23;19925;-89
2021/11/08 07:06:15;;;;;;;;;;;;;;;;;;6080656;23;19932;-91
2021/11/08 07:08:44;;;;;;;;;;;;;;;;;;6081146;23;19921;-91
2021/11/08 07:11:14;;;;;;;;;;;;;;;;;;6080295;23;19928;-88
2021/11/08 07:13:48;;;;;;;;;;;;;;;;;;6103406;23;19921;-90
2021/11/08 07:16:17;;;;;;;;;;;;;;;;;;6080002;23;19931;-88
2021/11/08 07:18:45;;;;;;;;;;;;;;;;;;6103002;23;20349;-88
2021/11/08 07:21:14;;;;;;;;;;;;;;;;;;6079508;23;19924;-88
2021/11/08 07:23:43;;;;;;;;;;;;;;;;;;6079503;23;19927;-88
2021/11/08 07:26:12;;;;;;;;;;;;;;;;;;6103891;23;19928;-89
2021/11/08 07:28:44;;;;;;;;;;;;;;;;;;6103577;23;19921;-91
2021/11/08 07:31:13;;;;;;;;;;;;;;;;;;6079146;23;19928;-90
2021/11/08 07:33:41;;;;;;;;;;;;;;;;;;6101688;23;19928;-89
2021/11/08 07:36:09;;;;;;;;;;;;;;;;;;6103253;23;19921;-91
2021/11/08 07:38:38;;;;;;;;;;;;;;;;;;6077235;23;19928;-90
2021/11/08 07:41:07;;;;;;;;;;;;;;;;;;6077556;23;19944;-89
2021/11/08 07:43:38;;;;;;;;;;;;;;;;;;6078198;23;19921;-90
2021/11/08 07:46:16;;;;;;;;;;;;;;;;;;6077706;23;19928;-90
2021/11/08 07:48:58;;;;;;;;;;;;;;;;;;6110600;23;19925;-89
2021/11/08 07:51:47;;;;;;;;;;;;;;;;;;6073290;23;19922;-91
2021/11/08 07:54:18;;;;;;;;;;;;;;;;;;6096372;23;19944;-91
2021/11/08 07:56:51;;;;;;;;;;;;;;;;;;6072497;23;19928;-91
2021/11/08 07:59:25;;;;;;;;;;;;;;;;;;6071787;23;19932;-91
2021/11/08 08:01:55;;;;;;;;;;;;;;;;;;6072062;23;20258;-91
2021/11/08 08:04:27;;;;;;;;;;;;;;;;;;6096773;23;19928;-89
2021/11/08 08:06:56;;;;;;;;;;;;;;;;;;6091596;23;19915;-91
2021/11/08 08:09:24;;;;;;;;;;;;;;;;;;6095308;23;19931;-88
2021/11/08 08:11:58;;;;;;;;;;;;;;;;;;6073298;23;19921;-88
2021/11/08 08:14:32;;;;;;;;;;;;;;;;;;6071792;23;20484;-91
2021/11/08 08:17:04;;;;;;;;;;;;;;;;;;6072223;23;20332;-89
2021/11/08 08:19:33;;;;;;;;;;;;;;;;;;6100704;23;19933;-90
2021/11/08 08:22:04;;;;;;;;;;;;;;;;;;6072707;23;19925;-90
2021/11/08 08:24:37;;;;;;;;;;;;;;;;;;6070525;23;19925;-89
2021/11/08 08:27:13;;;;;;;;;;;;;;;;;;6072346;23;19922;-91
2021/11/08 08:29:41;;;;;;;;;;;;;;;;;;6071966;23;20243;-86
2021/11/08 08:32:12;;;;;;;;;;;;;;;;;;6094859;23;19921;-90
2021/11/08 08:34:49;;;;;;;;;;;;;;;;;;6070536;23;19921;-90
2021/11/08 08:37:18;;;;;;;;;;;;;;;;;;6070542;23;19921;-92
2021/11/08 08:39:47;;;;;;;;;;;;;;;;;;6094864;23;19944;-89
2021/11/08 08:42:15;;;;;;;;;;;;;;;;;;6095061;23;19932;-90
2021/11/08 08:44:44;;;;;;;;;;;;;;;;;;6095921;23;19925;-88
2021/11/08 08:47:13;;;;;;;;;;;;;;;;;;6070160;23;20262;-88
2021/11/08 08:49:42;;;;;;;;;;;;;;;;;;6069891;23;19925;-91
2021/11/08 08:52:16;;;;;;;;;;;;;;;;;;6103145;23;19920;-88
2021/11/08 08:54:44;;;;;;;;;;;;;;;;;;6098418;23;19921;-89
2021/11/08 08:57:12;;;;;;;;;;;;;;;;;;6099529;23;19936;-89
2021/11/08 08:59:43;;;;;;;;;;;;;;;;;;6075076;23;19921;-89
2021/11/08 09:02:16;;;;;;;;;;;;;;;;;;6109274;23;19921;-90
2021/11/08 09:04:44;;;;;;;;;;;;;;;;;;6074839;23;19943;-86
2021/11/08 09:07:15;;;;;;;;;;;;;;;;;;6125438;23;19921;-89
2021/11/08 09:09:44;;;;;;;;;;;;;;;;;;6075280;23;19928;-88
2021/11/08 09:12:16;;;;;;;;;;;;;;;;;;6099988;23;19925;-88
2021/11/08 09:14:45;;;;;;;;;;;;;;;;;;6099745;23;19928;-91
2021/11/08 09:17:13;;;;;;;;;;;;;;;;;;6099482;23;19921;-89
2021/11/08 09:20:02;;;;;;;;;;;;;;;;;;6074679;23;19924;-88
2021/11/08 09:22:31;;;;;;;;;;;;;;;;;;6074700;23;20261;-88
2021/11/08 09:24:59;;;;;;;;;;;;;;;;;;6124884;23;19921;-89
2021/11/08 09:27:28;;;;;;;;;;;;;;;;;;6098715;23;19921;-89
2021/11/08 09:29:56;;;;;;;;;;;;;;;;;;6124462;23;19927;-89
2021/11/08 09:32:24;;;;;;;;;;;;;;;;;;6074846;23;19937;-90
2021/11/08 09:34:53;;;;;;;;;;;;;;;;;;6125004;23;19921;-91
2021/11/08 09:37:25;;;;;;;;;;;;;;;;;;6099431;23;19921;-89
2021/11/08 09:39:55;;;;;;;;;;;;;;;;;;6098849;23;20257;-88
2021/11/08 09:42:26;;;;;;;;;;;;;;;;;;6074846;23;19936;-90
2021/11/08 09:44:55;;;;;;;;;;;;;;;;;;6074684;23;19928;-88
2021/11/08 09:47:26;;;;;;;;;;;;;;;;;;6074853;23;19921;-89
2021/11/08 09:49:59;;;;;;;;;;;;;;;;;;6098802;23;19921;-90
2021/11/08 09:52:30;;;;;;;;;;;;;;;;;;6094058;23;20423;-88
2021/11/08 09:54:59;;;;;;;;;;;;;;;;;;6093219;23;19925;-90
2021/11/08 09:57:31;;;;;;;;;;;;;;;;;;6069824;23;19932;-89
2021/11/08 09:59:59;;;;;;;;;;;;;;;;;;6093840;23;20357;-89
2021/11/08 10:02:35;;;;;;;;;;;;;;;;;;6069958;23;20338;-89
2021/11/08 10:05:03;;;;;;;;;;;;;;;;;;6093280;23;19928;-91
2021/11/08 10:07:33;;;;;;;;;;;;;;;;;;6069864;23;19921;-90
2021/11/08 10:10:06;;;;;;;;;;;;;;;;;;6069773;23;19928;-89
2021/11/08 10:12:41;;;;;;;;;;;;;;;;;;6074246;23;19925;-92
2021/11/08 10:15:14;;;;;;;;;;;;;;;;;;6069899;23;19971;-91
2021/11/08 10:17:44;;;;;;;;;;;;;;;;;;6093610;23;19921;-91
2021/11/08 10:20:13;;;;;;;;;;;;;;;;;;6068844;23;19921;-90
2021/11/08 10:22:47;;;;;;;;;;;;;;;;;;6069670;23;19932;-91
2021/11/08 10:25:16;;;;;;;;;;;;;;;;;;6073887;23;19928;-91
2021/11/08 10:27:47;;;;;;;;;;;;;;;;;;6082641;23;19911;-94
2021/11/08 10:30:32;;;;;;;;;;;;;;;;;;6093624;23;19931;-91
2021/11/08 10:33:09;;;;;;;;;;;;;;;;;;6093796;23;19928;-90
2021/11/08 10:42:59;;;;;;;;;;;;;;;;;;6174426;23;19953;-95
2021/11/08 10:45:28;;;;;;;;;;;;;;;;;;6130490;23;19961;-94
2021/11/08 10:48:03;;;;;;;;;;;;;;;;;;6129592;23;19945;-95
2021/11/08 10:50:38;;;;;;;;;;;;;;;;;;6130606;23;19961;-95
2021/11/08 10:53:07;;;;;;;;;;;;;;;;;;6131007;23;19945;-94
2021/11/08 10:55:36;;;;;;;;;;;;;;;;;;6130621;23;19976;-95
2021/11/08 10:58:09;;;;;;;;;;;;;;;;;;6129552;23;19956;-96
2021/11/08 11:01:05;;;;;;;;;;;;;;;;;;6069182;23;19922;-89
2021/11/08 11:04:47;;;;;;;;;;;;;;;;;;6041866;23;19921;-89
2021/11/08 11:07:34;;;;;;;;;;;;;;;;;;6067707;23;19982;-89
2021/11/08 11:11:24;;;;;;;;;;;;;;;;;;6073626;23;19928;-88
2021/11/08 11:14:27;;;;;;;;;;;;;;;;;;6039581;23;19925;-90
2021/11/08 11:16:58;;;;;;;;;;;;;;;;;;6039843;23;19921;-89
2021/11/08 11:19:28;;;;;;;;;;;;;;;;;;6063720;23;19921;-89
2021/11/08 11:22:03;;;;;;;;;;;;;;;;;;6039609;23;19925;-88
2021/11/08 11:27:35;;;;;;;;;;;;;;;;;;6041340;23;19925;-88
2021/11/08 11:30:25;;;;;;;;;;;;;;;;;;6040991;23;19929;-90
2021/11/08 11:33:17;;;;;;;;;;;;;;;;;;6041369;23;19921;-90
2021/11/08 11:35:52;;;;;;;;;;;;;;;;;;6042305;23;20309;-90
2021/11/08 11:38:24;;;;;;;;;;;;;;;;;;6042609;23;20347;-89
2021/11/08 11:41:12;;;;;;;;;;;;;;;;;;6042514;23;19925;-90
2021/11/08 11:43:45;;;;;;;;;;;;;;;;;;6041908;23;19925;-88
2021/11/08 11:46:20;;;;;;;;;;;;;;;;;;6042583;23;19922;-88
2021/11/08 11:48:57;;;;;;;;;;;;;;;;;;6041202;23;19929;-90
2021/11/08 11:51:43;;;;;;;;;;;;;;;;;;6041379;23;19921;-88
2021/11/08 11:54:16;;;;;;;;;;;;;;;;;;6042396;23;19933;-89
2021/11/08 11:57:00;;;;;;;;;;;;;;;;;;6041533;23;19922;-90
2021/11/08 11:59:44;;;;;;;;;;;;;;;;;;6045285;23;20342;-89
2021/11/08 12:02:14;;;;;;;;;;;;;;;;;;6046440;23;19921;-90
2021/11/08 12:04:46;;;;;;;;;;;;;;;;;;6046709;23;20384;-89
2021/11/08 12:07:16;;;;;;;;;;;;;;;;;;6046041;23;19932;-90
2021/11/08 12:09:47;;;;;;;;;;;;;;;;;;6045853;23;19921;-89
2021/11/08 12:12:36;;;;;;;;;;;;;;;;;;6045343;23;20270;-89
2021/11/08 12:15:08;;;;;;;;;;;;;;;;;;6046469;23;19925;-91
2021/11/08 12:17:38;;;;;;;;;;;;;;;;;;6045980;23;19921;-89
2021/11/08 12:20:18;;;;;;;;;;;;;;;;;;6045290;23;19979;-89
2021/11/08 12:22:47;;;;;;;;;;;;;;;;;;6045807;23;20258;-89
2021/11/08 12:25:20;;;;;;;;;;;;;;;;;;6046008;23;20351;-90
2021/11/08 12:27:59;;;;;;;;;;;;;;;;;;6046684;23;20255;-89
2021/11/08 12:30:31;;;;;;;;;;;;;;;;;;6045085;23;19936;-90
2021/11/08 12:33:02;;;;;;;;;;;;;;;;;;6044066;23;19932;-90
2021/11/08 12:35:33;;;;;;;;;;;;;;;;;;6045456;23;19928;-91
2021/11/08 12:38:14;;;;;;;;;;;;;;;;;;6046200;23;19929;-90
2021/11/08 12:40:44;;;;;;;;;;;;;;;;;;6044949;23;19932;-90
2021/11/08 12:43:12;;;;;;;;;;;;;;;;;;6044577;23;19925;-90
2021/11/08 12:45:42;;;;;;;;;;;;;;;;;;6043803;23;19929;-90
2021/11/08 12:48:12;;;;;;;;;;;;;;;;;;6044143;23;19921;-90
2021/11/08 12:50:43;;;;;;;;;;;;;;;;;;6043694;23;19921;-90
2021/11/08 12:53:22;;;;;;;;;;;;;;;;;;6069102;23;19925;-91
2021/11/08 12:55:51;;;;;;;;;;;;;;;;;;6044967;23;19921;-91
2021/11/08 12:58:31;;;;;;;;;;;;;;;;;;6079640;23;19929;-90
2021/11/08 13:01:01;;;;;;;;;;;;;;;;;;6095543;23;19921;-90
2021/11/08 13:03:35;;;;;;;;;;;;;;;;;;6046421;23;19929;-90
2021/11/08 13:06:08;;;;;;;;;;;;;;;;;;6049013;23;20361;-90
2021/11/08 13:08:37;;;;;;;;;;;;;;;;;;6072148;23;19928;-89
2021/11/08 13:11:09;;;;;;;;;;;;;;;;;;6095281;23;19921;-87
2021/11/08 13:13:38;;;;;;;;;;;;;;;;;;6044075;23;19921;-87
2021/11/08 13:16:10;;;;;;;;;;;;;;;;;;6044079;23;19932;-87
2021/11/08 13:18:40;;;;;;;;;;;;;;;;;;6076256;23;19928;-87
2021/11/08 13:21:10;;;;;;;;;;;;;;;;;;6043894;23;19922;-86
2021/11/08 13:23:40;;;;;;;;;;;;;;;;;;6044812;23;19940;-85
2021/11/08 13:26:09;;;;;;;;;;;;;;;;;;6066846;23;19928;-86
2021/11/08 13:28:37;;;;;;;;;;;;;;;;;;6043896;23;19921;-86
2021/11/08 13:31:07;;;;;;;;;;;;;;;;;;6067401;23;19925;-86
2021/11/08 13:33:36;;;;;;;;;;;;;;;;;;6044304;23;19921;-86
2021/11/08 13:36:05;;;;;;;;;;;;;;;;;;6067410;23;20258;-88
2021/11/08 13:38:35;;;;;;;;;;;;;;;;;;6042544;23;20362;-87
2021/11/08 13:41:05;;;;;;;;;;;;;;;;;;6043847;23;19944;-88
2021/11/08 13:43:37;;;;;;;;;;;;;;;;;;6043106;23;19925;-87
2021/11/08 13:46:07;;;;;;;;;;;;;;;;;;6069038;23;19929;-89
2021/11/08 13:48:37;;;;;;;;;;;;;;;;;;6068491;23;19932;-86
2021/11/08 13:51:06;;;;;;;;;;;;;;;;;;6043616;23;19922;-87
2021/11/08 13:53:36;;;;;;;;;;;;;;;;;;6044741;23;19921;-87
2021/11/08 13:56:06;;;;;;;;;;;;;;;;;;6044661;23;19921;-88
2021/11/08 13:58:46;;;;;;;;;;;;;;;;;;6044443;23;19928;-89
2021/11/08 14:01:14;;;;;;;;;;;;;;;;;;6043791;23;20358;-89
2021/11/08 14:03:43;;;;;;;;;;;;;;;;;;6044598;23;19921;-88
2021/11/08 14:06:13;;;;;;;;;;;;;;;;;;6044553;23;19925;-89
2021/11/08 14:08:47;;;;;;;;;;;;;;;;;;6044547;23;19925;-89
2021/11/08 14:11:24;;;;;;;;;;;;;;;;;;6043399;23;19944;-88
2021/11/08 14:13:53;;;;;;;;;;;;;;;;;;6044959;23;19928;-89
2021/11/08 14:16:22;;;;;;;;;;;;;;;;;;6069021;23;20478;-89
2021/11/08 14:18:51;;;;;;;;;;;;;;;;;;6069948;23;20261;-89
2021/11/08 14:21:19;;;;;;;;;;;;;;;;;;6046707;23;20347;-89
2021/11/08 14:23:55;;;;;;;;;;;;;;;;;;6070161;23;19921;-91
2021/11/08 14:26:23;;;;;;;;;;;;;;;;;;6054392;23;19971;-89
2021/11/08 14:28:51;;;;;;;;;;;;;;;;;;6079764;23;19921;-90
2021/11/08 14:31:21;;;;;;;;;;;;;;;;;;6050476;23;19922;-85
2021/11/08 14:33:50;;;;;;;;;;;;;;;;;;6044441;23;19928;-87
2021/11/08 14:36:21;;;;;;;;;;;;;;;;;;6044177;23;19922;-90
2021/11/08 14:38:53;;;;;;;;;;;;;;;;;;6044761;23;19921;-85
2021/11/08 14:41:23;;;;;;;;;;;;;;;;;;6044823;23;19928;-89
2021/11/08 14:43:58;;;;;;;;;;;;;;;;;;6045377;23;19928;-90
2021/11/08 14:46:42;;;;;;;;;;;;;;;;;;6068467;23;19915;-89
2021/11/08 14:49:12;;;;;;;;;;;;;;;;;;6069671;23;19947;-85
2021/11/08 14:51:40;;;;;;;;;;;;;;;;;;6063690;23;19921;-91
2021/11/08 14:54:10;;;;;;;;;;;;;;;;;;6044393;23;19921;-89
2021/11/08 14:56:40;;;;;;;;;;;;;;;;;;6044967;23;19921;-90
2021/11/08 14:59:09;;;;;;;;;;;;;;;;;;6043798;23;19925;-91
2021/11/08 15:01:43;;;;;;;;;;;;;;;;;;6070337;23;20255;-90
2021/11/08 15:04:17;;;;;;;;;;;;;;;;;;6046815;23;20377;-91
2021/11/08 15:06:52;;;;;;;;;;;;;;;;;;6047033;23;19925;-91
2021/11/08 15:09:23;;;;;;;;;;;;;;;;;;6046651;23;20257;-90
2021/11/08 15:11:52;;;;;;;;;;;;;;;;;;6080364;23;20231;-89
2021/11/08 15:14:21;;;;;;;;;;;;;;;;;;6071175;23;20338;-89
2021/11/08 15:16:50;;;;;;;;;;;;;;;;;;6075061;23;19921;-89
2021/11/08 15:19:20;;;;;;;;;;;;;;;;;;6070859;23;19932;-91
2021/11/08 15:21:49;;;;;;;;;;;;;;;;;;6094989;23;19921;-89
2021/11/08 15:24:17;;;;;;;;;;;;;;;;;;6070902;23;20262;-91
2021/11/08 15:26:49;;;;;;;;;;;;;;;;;;6046968;23;19926;-91
2021/11/08 15:29:22;;;;;;;;;;;;;;;;;;6102208;23;20258;-90
2021/11/08 15:31:51;;;;;;;;;;;;;;;;;;6081072;23;20227;-90
2021/11/08 15:34:21;;;;;;;;;;;;;;;;;;6046858;23;20255;-89
2021/11/08 15:36:51;;;;;;;;;;;;;;;;;;6047383;23;19921;-90
2021/11/08 15:39:27;;;;;;;;;;;;;;;;;;6095443;23;20258;-92
2021/11/08 15:41:58;;;;;;;;;;;;;;;;;;6047633;23;20258;-90
2021/11/08 15:44:27;;;;;;;;;;;;;;;;;;6046985;23;19932;-92
2021/11/08 15:46:55;;;;;;;;;;;;;;;;;;6094981;23;19925;-91
2021/11/08 15:49:23;;;;;;;;;;;;;;;;;;6070169;23;19929;-91
2021/11/08 15:51:52;;;;;;;;;;;;;;;;;;6071316;23;19928;-88
2021/11/08 15:54:23;;;;;;;;;;;;;;;;;;6046950;23;19929;-89
2021/11/08 15:56:54;;;;;;;;;;;;;;;;;;6105056;23;19928;-91
2021/11/08 15:59:24;;;;;;;;;;;;;;;;;;6042255;23;19925;-92
2021/11/08 16:01:52;;;;;;;;;;;;;;;;;;6042352;23;19921;-91
2021/11/08 16:04:21;;;;;;;;;;;;;;;;;;6042943;23;19933;-90
2021/11/08 16:06:53;;;;;;;;;;;;;;;;;;6042148;23;19921;-88
2021/11/08 16:09:21;;;;;;;;;;;;;;;;;;6041722;23;19929;-90
2021/11/08 16:11:49;;;;;;;;;;;;;;;;;;6066050;23;20080;-90
2021/11/08 16:14:18;;;;;;;;;;;;;;;;;;6066117;23;19922;-90
2021/11/08 16:16:48;;;;;;;;;;;;;;;;;;6066011;23;19933;-90
2021/11/08 16:19:18;;;;;;;;;;;;;;;;;;6072498;23;19926;-92
2021/11/08 16:21:47;;;;;;;;;;;;;;;;;;6066153;23;19938;-89
2021/11/08 16:24:20;;;;;;;;;;;;;;;;;;6042711;23;20347;-89
2021/11/08 16:26:51;;;;;;;;;;;;;;;;;;6042415;23;19921;-91
2021/11/08 16:29:21;;;;;;;;;;;;;;;;;;6072405;23;19975;-89
2021/11/08 16:32:07;;;;;;;;;;;;;;;;;;6090593;23;19921;-91
2021/11/08 16:34:37;;;;;;;;;;;;;;;;;;6066925;23;20347;-89
2021/11/08 16:37:05;;;;;;;;;;;;;;;;;;6067174;23;20332;-90
2021/11/08 16:39:34;;;;;;;;;;;;;;;;;;6042808;23;19925;-91
2021/11/08 16:42:05;;;;;;;;;;;;;;;;;;6068751;23;19922;-91
2021/11/08 16:44:33;;;;;;;;;;;;;;;;;;6042381;23;19929;-90
2021/11/08 16:47:02;;;;;;;;;;;;;;;;;;6042616;23;19922;-91
2021/11/08 16:49:30;;;;;;;;;;;;;;;;;;6067171;23;19932;-89
2021/11/08 16:52:00;;;;;;;;;;;;;;;;;;6042967;23;19925;-91
2021/11/08 16:54:28;;;;;;;;;;;;;;;;;;6065916;23;19928;-90
2021/11/08 16:56:56;;;;;;;;;;;;;;;;;;6066337;23;19925;-90
2021/11/08 16:59:25;;;;;;;;;;;;;;;;;;6071428;23;20232;-91
2021/11/08 17:01:54;;;;;;;;;;;;;;;;;;6048187;23;19921;-91
2021/11/08 17:04:22;;;;;;;;;;;;;;;;;;6050157;23;19922;-89
2021/11/08 17:06:53;;;;;;;;;;;;;;;;;;6099297;23;19921;-90
2021/11/08 17:09:35;;;;;;;;;;;;;;;;;;6048968;23;19943;-90
2021/11/08 17:14:50;;;;;;;;;;;;;;;;;;6049445;23;19921;-91
2021/11/08 17:17:18;;;;;;;;;;;;;;;;;;6073202;23;19928;-87
2021/11/08 17:19:47;;;;;;;;;;;;;;;;;;6072596;23;19932;-89
2021/11/08 17:22:16;;;;;;;;;;;;;;;;;;6074036;23;19921;-89
2021/11/08 17:24:45;;;;;;;;;;;;;;;;;;6072812;23;19927;-88
2021/11/08 17:27:16;;;;;;;;;;;;;;;;;;6049539;23;19921;-91
2021/11/08 17:29:45;;;;;;;;;;;;;;;;;;6100925;23;19926;-92
2021/11/08 17:32:13;;;;;;;;;;;;;;;;;;6099139;23;19922;-90
2021/11/08 17:34:41;;;;;;;;;;;;;;;;;;6099352;23;19921;-92
2021/11/08 17:37:10;;;;;;;;;;;;;;;;;;6085992;23;20250;-90
2021/11/08 17:39:38;;;;;;;;;;;;;;;;;;6077153;23;19922;-91
2021/11/08 17:42:09;;;;;;;;;;;;;;;;;;6060447;23;20355;-92
2021/11/08 17:44:37;;;;;;;;;;;;;;;;;;6088973;23;19939;-92
2021/11/08 17:47:05;;;;;;;;;;;;;;;;;;6067490;23;19936;-90
2021/11/08 17:49:34;;;;;;;;;;;;;;;;;;6077220;23;19921;-91
2021/11/08 17:52:02;;;;;;;;;;;;;;;;;;6051216;23;19921;-90
2021/11/08 17:54:32;;;;;;;;;;;;;;;;;;6050346;23;20390;-90
2021/11/08 17:57:01;;;;;;;;;;;;;;;;;;6074240;23;19932;-92
2021/11/08 17:59:30;;;;;;;;;;;;;;;;;;6044892;23;19928;-90
2021/11/08 18:01:59;;;;;;;;;;;;;;;;;;6069428;23;19922;-90
2021/11/08 18:04:27;;;;;;;;;;;;;;;;;;6070903;23;19922;-90
2021/11/08 18:06:56;;;;;;;;;;;;;;;;;;6070768;23;19928;-91
2021/11/08 18:09:25;;;;;;;;;;;;;;;;;;6070126;23;19928;-89
2021/11/08 18:11:54;;;;;;;;;;;;;;;;;;6070465;23;19928;-91
2021/11/08 18:14:22;;;;;;;;;;;;;;;;;;6047553;23;19922;-92
2021/11/08 18:16:53;;;;;;;;;;;;;;;;;;6047092;23;20240;-88
2021/11/08 18:19:24;;;;;;;;;;;;;;;;;;6075674;23;19922;-89
2021/11/08 18:22:11;;;;;;;;;;;;;;;;;;6080230;23;19929;-90
2021/11/08 18:24:43;;;;;;;;;;;;;;;;;;6103328;23;19945;-91
2021/11/08 18:27:12;;;;;;;;;;;;;;;;;;6078052;23;19933;-91
2021/11/08 18:29:40;;;;;;;;;;;;;;;;;;6067491;23;19921;-90
2021/11/08 18:32:10;;;;;;;;;;;;;;;;;;6068121;23;20287;-90
2021/11/08 18:34:39;;;;;;;;;;;;;;;;;;6067327;23;19925;-90
2021/11/08 18:37:09;;;;;;;;;;;;;;;;;;6070857;23;19929;-91
2021/11/08 18:39:37;;;;;;;;;;;;;;;;;;6070393;23;19922;-91
2021/11/08 18:42:07;;;;;;;;;;;;;;;;;;6046850;23;19932;-90
2021/11/08 18:44:35;;;;;;;;;;;;;;;;;;6072724;23;19926;-92
2021/11/08 18:47:04;;;;;;;;;;;;;;;;;;6047985;23;19921;-90
2021/11/08 18:49:34;;;;;;;;;;;;;;;;;;6070865;23;19922;-89
2021/11/08 18:52:03;;;;;;;;;;;;;;;;;;6071880;23;19922;-91